createdAt,value
2022-11-03T00:02:09.077Z,37.42
2022-11-03T00:04:36.437Z,36.20
2022-11-03T00:07:03.816Z,38.70
2022-11-03T00:09:31.954Z,36.78
2022-11-03T00:11:59.337Z,32.60
2022-11-03T00:14:26.645Z,34.13
2022-11-03T00:16:57.053Z,36.88
2022-11-03T00:19:27.111Z,38.13
2022-11-03T00:21:55.035Z,38.50
2022-11-03T00:24:25.113Z,38.65
2022-11-03T00:26:52.945Z,36.80
2022-11-03T00:29:20.213Z,39.67
2022-11-03T00:31:51.773Z,36.08
2022-11-03T00:34:19.170Z,35.90
2022-11-03T00:36:46.532Z,38.45
2022-11-03T00:39:13.889Z,44.00
2022-11-03T00:41:41.466Z,38.65
2022-11-03T00:44:10.698Z,35.13
2022-11-03T00:46:40.959Z,36.50
2022-11-03T00:49:08.229Z,41.47
2022-11-03T00:51:36.273Z,36.75
2022-11-03T00:54:07.751Z,37.92
2022-11-03T00:56:40.114Z,37.60
2022-11-03T00:59:08.927Z,37.47
2022-11-03T01:01:45.386Z,35.65
2022-11-03T01:04:34.327Z,33.58
2022-11-03T01:07:03.301Z,35.33
2022-11-03T01:09:38.415Z,44.25
2022-11-03T01:12:09.719Z,35.53
2022-11-03T01:14:38.743Z,36.72
2022-11-03T01:17:27.645Z,36.90
2022-11-03T01:19:55.220Z,34.17
2022-11-03T01:22:24.224Z,40.42
2022-11-03T01:24:54.565Z,38.08
2022-11-03T01:27:23.142Z,38.78
2022-11-03T01:29:50.442Z,34.42
2022-11-03T01:32:17.755Z,34.40
2022-11-03T01:34:45.082Z,37.72
2022-11-03T01:37:12.540Z,34.80
2022-11-03T01:39:39.811Z,38.22
2022-11-03T01:42:08.598Z,35.15
2022-11-03T01:44:46.379Z,33.55
2022-11-03T01:47:22.029Z,39.35
2022-11-03T01:49:58.265Z,30.40
2022-11-03T01:52:38.498Z,33.17
2022-11-03T01:55:20.010Z,43.20
2022-11-03T01:57:59.541Z,33.75
2022-11-03T02:00:27.048Z,31.52
2022-11-03T02:02:54.843Z,32.22
2022-11-03T02:05:27.726Z,32.08
2022-11-03T02:08:05.411Z,38.35
2022-11-03T02:10:33.676Z,39.28
2022-11-03T02:13:07.521Z,34.28
2022-11-03T02:15:36.634Z,36.10
2022-11-03T02:18:06.254Z,40.53
2022-11-03T02:20:34.823Z,33.72
2022-11-03T02:23:24.201Z,35.95
2022-11-03T02:25:58.688Z,34.50
2022-11-03T02:28:29.624Z,34.50
2022-11-03T02:31:00.820Z,38.15
2022-11-03T02:33:49.713Z,38.97
2022-11-03T02:36:47.184Z,37.30
2022-11-03T02:39:30.153Z,38.25
2022-11-03T02:42:00.699Z,35.25
2022-11-03T02:44:28.616Z,32.35
2022-11-03T02:47:00.696Z,32.53
2022-11-03T02:49:28.413Z,32.00
2022-11-03T02:52:03.558Z,32.53
2022-11-03T02:54:44.323Z,35.55
2022-11-03T02:57:21.706Z,33.05
2022-11-03T03:00:01.739Z,30.02
2022-11-03T03:02:52.925Z,34.60
2022-11-03T03:05:25.551Z,28.85
2022-11-03T03:08:00.135Z,27.95
2022-11-03T03:10:33.896Z,30.60
2022-11-03T03:13:03.200Z,21.52
2022-11-03T03:15:45.307Z,21.45
2022-11-03T03:18:22.574Z,24.67
2022-11-03T03:21:05.825Z,19.85
2022-11-03T03:23:36.985Z,22.38
2022-11-03T03:26:23.101Z,24.37
2022-11-03T03:28:58.359Z,24.35
2022-11-03T03:31:29.694Z,22.42
2022-11-03T03:34:04.909Z,23.45
2022-11-03T03:36:40.540Z,26.75
2022-11-03T03:39:11.826Z,22.67
2022-11-03T03:41:40.955Z,21.38
2022-11-03T03:44:10.487Z,23.30
2022-11-03T03:46:51.199Z,22.90
2022-11-03T03:49:18.897Z,24.65
2022-11-03T03:51:47.818Z,23.63
2022-11-03T03:54:15.177Z,21.55
2022-11-03T03:56:51.770Z,24.73
2022-11-03T03:59:19.098Z,23.52
2022-11-03T04:01:46.556Z,20.92
2022-11-03T04:04:14.005Z,25.42
2022-11-03T04:06:41.369Z,24.80
2022-11-03T04:09:09.455Z,27.25
2022-11-03T04:11:55.144Z,28.33
2022-11-03T04:14:41.561Z,25.70
2022-11-03T04:17:39.208Z,28.20
2022-11-03T04:20:32.392Z,22.55
2022-11-03T04:22:59.721Z,27.15
2022-11-03T04:25:27.072Z,28.35
2022-11-03T04:27:54.417Z,24.40
2022-11-03T04:30:24.977Z,24.02
2022-11-03T04:32:53.398Z,30.98
2022-11-03T04:35:24.295Z,27.95
2022-11-03T04:37:57.409Z,28.13
2022-11-03T04:40:24.859Z,33.15
2022-11-03T04:42:54.634Z,33.05
2022-11-03T04:45:34.129Z,28.88
2022-11-03T04:48:10.142Z,30.73
2022-11-03T04:50:37.473Z,31.50
2022-11-03T04:53:10.028Z,30.73
2022-11-03T04:55:40.872Z,28.38
2022-11-03T04:58:34.787Z,29.38
2022-11-03T05:01:03.823Z,26.88
2022-11-03T05:03:33.810Z,28.85
2022-11-03T05:06:15.733Z,26.67
2022-11-03T05:08:45.376Z,29.85
2022-11-03T05:11:19.370Z,26.63
2022-11-03T05:13:47.552Z,28.10
2022-11-03T05:16:14.884Z,32.90
2022-11-03T05:18:44.990Z,27.27
2022-11-03T05:21:22.627Z,27.17
2022-11-03T05:23:58.069Z,29.23
2022-11-03T05:26:34.556Z,26.95
2022-11-03T05:29:10.904Z,29.63
2022-11-03T05:31:42.093Z,27.50
2022-11-03T05:34:27.477Z,27.03
2022-11-03T05:36:54.903Z,29.42
2022-11-03T05:39:43.275Z,26.98
2022-11-03T05:42:34.285Z,28.25
2022-11-03T05:45:09.169Z,27.42
2022-11-03T05:47:38.888Z,30.88
2022-11-03T05:50:28.389Z,27.45
2022-11-03T05:53:13.978Z,28.80
2022-11-03T05:55:42.678Z,30.30
2022-11-03T05:58:25.870Z,30.27
2022-11-03T06:00:57.702Z,29.52
2022-11-03T06:03:30.951Z,33.50
2022-11-03T06:06:00.129Z,34.30
2022-11-03T06:08:38.865Z,34.30
2022-11-03T06:11:15.145Z,33.33
2022-11-03T06:13:42.594Z,38.33
2022-11-03T06:16:31.572Z,37.58
2022-11-03T06:19:01.759Z,34.58
2022-11-03T06:21:29.129Z,33.95
2022-11-03T06:23:57.712Z,35.67
2022-11-03T06:26:30.992Z,41.15
2022-11-03T06:29:00.178Z,33.38
2022-11-03T06:31:28.787Z,38.63
2022-11-03T06:33:58.406Z,33.83
2022-11-03T06:36:35.298Z,35.95
2022-11-03T06:39:09.695Z,36.70
2022-11-03T06:41:37.593Z,38.53
2022-11-03T06:44:22.171Z,31.88
2022-11-03T06:46:49.656Z,41.40
2022-11-03T06:49:33.043Z,37.45
2022-11-03T06:52:22.717Z,38.78
2022-11-03T06:54:54.310Z,36.42
2022-11-03T06:57:21.687Z,37.95
2022-11-03T06:59:56.996Z,40.05
2022-11-03T07:02:52.472Z,35.47
2022-11-03T07:05:24.442Z,40.83
2022-11-03T07:07:56.260Z,38.97
2022-11-03T07:10:29.157Z,36.85
2022-11-03T07:13:04.345Z,38.15
2022-11-03T07:15:37.544Z,41.10
2022-11-03T07:18:13.480Z,37.72
2022-11-03T07:20:40.922Z,37.47
2022-11-03T07:23:16.121Z,36.38
2022-11-03T07:25:45.679Z,40.17
2022-11-03T07:28:13.413Z,42.38
2022-11-03T07:30:40.913Z,42.78
2022-11-03T07:33:16.786Z,41.13
2022-11-03T07:36:15.037Z,37.45
2022-11-03T07:38:33.516Z,36.13
2022-11-03T07:41:01.219Z,41.03
2022-11-03T07:43:32.055Z,40.97
2022-11-03T07:46:01.894Z,37.80
2022-11-03T07:48:33.809Z,41.38
2022-11-03T07:51:12.397Z,46.88
2022-11-03T07:53:48.171Z,44.00
2022-11-03T07:56:32.392Z,42.88
2022-11-03T07:59:08.474Z,45.80
2022-11-03T08:01:57.793Z,39.65
2022-11-03T08:04:27.334Z,43.00
2022-11-03T08:06:55.103Z,42.30
2022-11-03T08:09:23.080Z,40.08
2022-11-03T08:11:51.414Z,41.83
2022-11-03T08:14:19.040Z,41.75
2022-11-03T08:16:46.585Z,69.38
2022-11-03T08:19:13.977Z,38.72
2022-11-03T08:21:41.385Z,39.97
2022-11-03T08:24:08.728Z,36.80
2022-11-03T08:26:36.103Z,34.30
2022-11-03T08:29:03.742Z,27.88
2022-11-03T08:31:31.114Z,29.33
2022-11-03T08:33:58.722Z,34.60
2022-11-03T08:36:26.173Z,31.35
2022-11-03T08:38:53.472Z,27.35
2022-11-03T08:41:20.869Z,29.70
2022-11-03T08:43:50.870Z,39.35
2022-11-03T08:46:18.583Z,31.70
2022-11-03T08:48:46.770Z,30.23
2022-11-03T08:51:16.509Z,31.35
2022-11-03T08:53:44.155Z,26.83
2022-11-03T08:56:17.006Z,29.38
2022-11-03T08:58:47.167Z,25.15
2022-11-03T09:01:14.811Z,32.88
2022-11-03T09:03:42.291Z,30.85
2022-11-03T09:06:10.418Z,27.25
2022-11-03T09:11:25.501Z,27.35
2022-11-03T09:13:53.021Z,28.52
2022-11-03T09:16:23.379Z,31.48
2022-11-03T09:18:50.796Z,28.23
2022-11-03T09:21:18.410Z,36.67
2022-11-03T09:23:45.704Z,25.67
2022-11-03T09:26:13.072Z,25.27
2022-11-03T09:28:40.389Z,29.92
2022-11-03T09:31:08.323Z,32.42
2022-11-03T09:33:35.713Z,29.17
2022-11-03T09:36:03.127Z,32.47
2022-11-03T09:38:30.582Z,31.42
2022-11-03T09:40:58.239Z,35.42
2022-11-03T09:43:25.785Z,31.85
2022-11-03T09:45:54.143Z,34.42
2022-11-03T09:48:21.643Z,37.92
2022-11-03T09:50:53.696Z,44.53
2022-11-03T09:53:21.495Z,48.03
2022-11-03T09:55:48.980Z,41.95
2022-11-03T09:58:18.095Z,38.97
2022-11-03T10:00:46.295Z,38.58
2022-11-03T10:03:18.374Z,44.53
2022-11-03T10:08:29.756Z,46.17
2022-11-03T10:10:58.872Z,53.28
2022-11-03T10:13:34.770Z,57.40
2022-11-03T10:16:05.343Z,45.70
2022-11-03T10:18:34.721Z,45.60
2022-11-03T10:21:06.346Z,49.25
2022-11-03T10:23:33.765Z,49.58
2022-11-03T10:26:19.074Z,42.78
2022-11-03T10:29:21.140Z,51.40
2022-11-03T10:31:51.654Z,48.88
2022-11-03T10:34:35.576Z,46.45
2022-11-03T10:37:10.541Z,44.85
2022-11-03T10:39:38.655Z,51.97
2022-11-03T10:42:08.126Z,46.63
2022-11-03T10:44:38.275Z,43.05
2022-11-03T10:47:07.201Z,43.08
2022-11-03T10:49:43.724Z,45.30
2022-11-03T10:52:18.483Z,49.60
2022-11-03T10:54:46.992Z,50.08
2022-11-03T10:57:15.517Z,56.72
2022-11-03T10:59:49.938Z,49.95
2022-11-03T11:02:21.831Z,58.38
2022-11-03T11:07:26.337Z,58.85
2022-11-03T11:09:54.455Z,59.08
2022-11-03T11:12:24.735Z,57.58
2022-11-03T11:15:07.095Z,65.75
2022-11-03T11:17:37.169Z,61.42
2022-11-03T11:20:28.308Z,63.22
2022-11-03T11:23:18.090Z,65.40
2022-11-03T11:26:10.417Z,65.13
2022-11-03T11:28:40.440Z,62.40
2022-11-03T11:31:26.781Z,66.28
2022-11-03T11:34:12.239Z,67.32
2022-11-03T11:36:41.667Z,63.20
2022-11-03T11:39:33.822Z,61.78
2022-11-03T11:42:10.186Z,65.20
2022-11-03T11:44:43.674Z,62.33
2022-11-03T11:47:39.004Z,62.60
2022-11-03T11:50:06.618Z,57.78
2022-11-03T11:52:52.793Z,59.22
2022-11-03T11:55:38.781Z,55.30
2022-11-03T11:58:17.265Z,56.63
2022-11-03T12:01:20.182Z,54.78
2022-11-03T12:03:49.125Z,56.33
2022-11-03T12:06:16.836Z,53.90
2022-11-03T12:08:44.372Z,52.22
2022-11-03T12:11:13.025Z,58.25
2022-11-03T12:13:44.914Z,53.47
2022-11-03T12:16:35.712Z,52.28
2022-11-03T12:19:40.981Z,54.58
2022-11-03T12:22:23.589Z,48.10
2022-11-03T12:24:51.972Z,51.28
2022-11-03T12:27:21.133Z,57.50
2022-11-03T12:29:48.473Z,55.28
2022-11-03T12:32:32.213Z,55.58
2022-11-03T12:35:07.602Z,58.60
2022-11-03T12:37:35.506Z,59.13
2022-11-03T12:40:03.219Z,48.33
2022-11-03T12:42:30.709Z,51.70
2022-11-03T12:44:58.239Z,49.35
2022-11-03T12:47:25.656Z,49.40
2022-11-03T12:49:55.507Z,49.88
2022-11-03T12:52:23.036Z,49.42
2022-11-03T12:54:50.434Z,48.40
2022-11-03T12:57:18.011Z,51.47
2022-11-03T12:59:45.429Z,51.58
2022-11-03T13:02:13.021Z,49.45
2022-11-03T13:04:43.353Z,50.05
2022-11-03T13:07:10.811Z,76.75
2022-11-03T13:09:38.190Z,93.30
2022-11-03T13:12:24.689Z,52.08
2022-11-03T13:14:52.121Z,50.35
2022-11-03T13:17:19.884Z,50.03
2022-11-03T13:19:47.269Z,50.70
2022-11-03T13:22:14.693Z,45.53
2022-11-03T13:24:44.155Z,52.25
2022-11-03T13:27:11.630Z,53.58
2022-11-03T13:29:42.090Z,53.28
2022-11-03T13:32:09.584Z,51.90
2022-11-03T13:34:37.012Z,51.50
2022-11-03T13:37:04.985Z,50.20
2022-11-03T13:39:32.371Z,54.05
2022-11-03T13:42:00.169Z,60.75
2022-11-03T13:44:28.032Z,56.63
2022-11-03T13:46:55.422Z,62.15
2022-11-03T13:49:59.189Z,53.80
2022-11-03T13:52:10.247Z,52.38
2022-11-03T14:00:16.998Z,53.58
2022-11-03T14:05:32.549Z,58.67
2022-11-03T14:08:00.029Z,54.45
2022-11-03T14:10:27.396Z,61.00
2022-11-03T14:12:54.958Z,55.13
2022-11-03T14:15:22.362Z,55.15
2022-11-03T14:17:49.723Z,59.05
2022-11-03T14:20:17.191Z,56.25
2022-11-03T14:22:44.615Z,57.97
2022-11-03T14:25:12.162Z,51.38
2022-11-03T14:27:41.092Z,56.20
2022-11-03T14:30:10.203Z,56.10
2022-11-03T14:32:37.769Z,56.70
2022-11-03T14:35:06.119Z,54.22
2022-11-03T14:37:33.506Z,57.47
2022-11-03T14:40:01.010Z,58.58
2022-11-03T14:42:28.373Z,57.42
2022-11-03T14:44:56.004Z,55.08
2022-11-03T14:47:25.614Z,58.42
2022-11-03T14:49:53.032Z,55.15
2022-11-03T14:52:20.430Z,57.15
2022-11-03T14:54:48.323Z,58.60
2022-11-03T14:57:15.692Z,61.55
2022-11-03T14:59:43.122Z,62.17
2022-11-03T15:02:10.517Z,51.10
2022-11-03T15:04:38.390Z,54.72
2022-11-03T15:07:05.731Z,56.63
2022-11-03T15:09:33.042Z,53.53
2022-11-03T15:12:00.438Z,57.90
2022-11-03T15:14:28.084Z,56.70
2022-11-03T15:16:55.529Z,61.22
2022-11-03T15:19:25.806Z,53.63
2022-11-03T15:21:53.262Z,54.58
2022-11-03T15:27:08.031Z,55.20
2022-11-03T15:29:37.510Z,56.20
2022-11-03T15:32:05.315Z,52.88
2022-11-03T15:34:32.687Z,53.38
2022-11-03T15:37:00.067Z,52.25
2022-11-03T15:39:29.679Z,53.85
2022-11-03T15:41:57.317Z,54.88
2022-11-03T15:44:24.852Z,52.40
2022-11-03T15:46:54.242Z,60.60
2022-11-03T15:49:21.613Z,53.92
2022-11-03T15:51:49.030Z,54.65
2022-11-03T15:54:16.773Z,55.92
2022-11-03T15:56:44.223Z,58.17
2022-11-03T15:59:14.717Z,54.45
2022-11-03T16:01:42.594Z,58.22
2022-11-03T16:04:10.095Z,55.88
2022-11-03T16:07:06.073Z,54.45
2022-11-03T16:09:24.750Z,57.50
2022-11-03T16:11:52.202Z,51.50
2022-11-03T16:14:19.546Z,58.25
2022-11-03T16:16:47.196Z,54.35
2022-11-03T16:19:14.554Z,50.53
2022-11-03T16:21:41.946Z,54.78
2022-11-03T16:24:09.423Z,55.10
2022-11-03T16:26:36.854Z,55.65
2022-11-03T16:29:04.236Z,51.10
2022-11-03T16:31:32.392Z,51.30
2022-11-03T16:34:00.233Z,56.05
2022-11-03T16:36:27.617Z,57.53
2022-11-03T16:38:55.035Z,54.80
2022-11-03T16:41:22.653Z,56.97
2022-11-03T16:43:50.085Z,60.83
2022-11-03T16:46:17.400Z,54.88
2022-11-03T16:48:46.250Z,54.67
2022-11-03T16:51:13.949Z,55.60
2022-11-03T16:53:41.294Z,60.30
2022-11-03T16:56:09.077Z,56.97
2022-11-03T16:58:36.532Z,52.72
2022-11-03T17:01:07.212Z,54.17
2022-11-03T17:03:35.132Z,57.53
2022-11-03T17:06:02.525Z,57.08
2022-11-03T17:08:51.832Z,55.55
2022-11-03T17:11:35.816Z,55.17
2022-11-03T17:14:08.768Z,57.40
2022-11-03T17:16:38.229Z,54.10
2022-11-03T17:19:05.910Z,55.05
2022-11-03T17:21:33.277Z,55.60
2022-11-03T17:24:01.166Z,56.97
2022-11-03T17:27:00.376Z,55.58
2022-11-03T17:29:40.865Z,52.42
2022-11-03T17:32:30.603Z,55.45
2022-11-03T17:34:58.529Z,52.47
2022-11-03T17:37:29.011Z,54.38
2022-11-03T17:39:56.595Z,59.42
2022-11-03T17:42:26.075Z,60.45
2022-11-03T17:44:55.861Z,58.53
2022-11-03T17:47:24.307Z,57.47
2022-11-03T17:49:51.719Z,57.78
2022-11-03T17:52:28.335Z,58.47
2022-11-03T17:54:58.246Z,61.30
2022-11-03T17:57:26.437Z,58.00
2022-11-03T17:59:57.700Z,60.35
2022-11-03T18:02:27.935Z,53.78
2022-11-03T18:05:06.066Z,57.50
2022-11-03T18:07:33.432Z,62.88
2022-11-03T18:10:00.941Z,56.95
2022-11-03T18:12:54.176Z,58.38
2022-11-03T18:15:24.915Z,62.70
2022-11-03T18:17:53.755Z,61.25
2022-11-03T18:20:26.022Z,58.25
2022-11-03T18:25:22.720Z,67.10
2022-11-03T18:27:50.094Z,63.25
2022-11-03T18:30:17.521Z,62.63
2022-11-03T18:32:47.119Z,63.08
2022-11-03T18:35:21.253Z,58.17
2022-11-03T18:37:49.072Z,60.33
2022-11-03T18:40:16.809Z,59.88
2022-11-03T18:42:44.188Z,59.17
2022-11-03T18:45:16.456Z,70.15
2022-11-03T18:47:44.518Z,63.75
2022-11-03T18:50:17.382Z,64.22
2022-11-03T18:52:48.101Z,62.50
2022-11-03T18:55:17.038Z,65.88
2022-11-03T18:57:44.702Z,59.15
2022-11-03T19:00:21.677Z,63.45
2022-11-03T19:02:50.500Z,60.50
2022-11-03T19:05:18.894Z,66.10
2022-11-03T19:07:50.678Z,61.53
2022-11-03T19:10:22.223Z,59.55
2022-11-03T19:12:49.576Z,67.57
2022-11-03T19:15:22.793Z,68.07
2022-11-03T19:17:57.847Z,64.10
2022-11-03T19:20:25.576Z,68.90
2022-11-03T19:22:53.056Z,66.53
2022-11-03T19:25:20.405Z,64.90
2022-11-03T19:27:48.886Z,73.70
2022-11-03T19:30:19.576Z,64.43
2022-11-03T19:32:53.428Z,72.63
2022-11-03T19:35:23.478Z,71.15
2022-11-03T19:38:02.458Z,69.85
2022-11-03T19:40:30.354Z,68.78
2022-11-03T19:42:57.920Z,71.03
2022-11-03T19:45:25.517Z,68.30
2022-11-03T19:50:49.074Z,75.38
2022-11-03T19:53:29.050Z,75.30
2022-11-03T19:55:56.846Z,71.43
2022-11-03T19:58:26.621Z,77.03
2022-11-03T20:00:54.955Z,71.82
2022-11-03T20:03:23.315Z,70.47
2022-11-03T20:05:53.535Z,76.15
2022-11-03T20:08:24.503Z,75.55
2022-11-03T20:10:52.938Z,68.22
2022-11-03T20:13:26.303Z,75.93
2022-11-03T20:16:00.648Z,76.82
2022-11-03T20:18:29.426Z,74.95
2022-11-03T20:20:58.280Z,73.68
2022-11-03T20:23:28.727Z,75.80
2022-11-03T20:25:56.609Z,75.70
2022-11-03T20:28:30.080Z,77.60
2022-11-03T20:30:57.935Z,77.60
2022-11-03T20:33:25.584Z,72.03
2022-11-03T20:35:54.207Z,77.18
2022-11-03T20:38:24.934Z,74.40
2022-11-03T20:41:01.062Z,81.53
2022-11-03T20:43:35.082Z,78.90
2022-11-03T20:46:10.685Z,74.80
2022-11-03T20:48:37.999Z,79.72
2022-11-03T20:51:05.711Z,76.03
2022-11-03T20:53:35.119Z,82.22
2022-11-03T20:56:02.486Z,77.00
2022-11-03T20:58:29.825Z,80.43
2022-11-03T21:00:57.214Z,79.10
2022-11-03T21:06:17.134Z,75.75
2022-11-03T21:08:46.339Z,81.35
2022-11-03T21:11:29.268Z,78.47
2022-11-03T21:14:01.190Z,74.35
2022-11-03T21:16:48.699Z,78.05
2022-11-03T21:19:40.257Z,80.38
2022-11-03T21:25:19.342Z,77.88
2022-11-03T21:27:47.528Z,78.47
2022-11-03T21:30:16.746Z,78.18
2022-11-03T21:32:44.209Z,76.10
2022-11-03T21:35:17.158Z,73.80
2022-11-03T21:37:44.641Z,87.20
2022-11-03T21:40:12.826Z,79.10
2022-11-03T21:42:58.634Z,77.80
2022-11-03T21:45:26.200Z,72.43
2022-11-03T21:48:14.246Z,76.07
2022-11-03T21:50:42.839Z,75.65
2022-11-03T21:53:11.505Z,75.97
2022-11-03T21:55:39.575Z,66.60
2022-11-03T21:58:07.790Z,70.07
2022-11-03T22:00:35.276Z,72.20
2022-11-03T22:03:02.645Z,74.63
2022-11-03T22:05:30.160Z,71.65
2022-11-03T22:07:57.552Z,65.38
2022-11-03T22:10:25.086Z,75.57
2022-11-03T22:12:52.433Z,68.85
2022-11-03T22:15:38.409Z,70.05
2022-11-03T22:18:07.100Z,67.90
2022-11-03T22:20:55.281Z,63.22
2022-11-03T22:23:41.388Z,69.10
2022-11-03T22:26:30.846Z,62.78
2022-11-03T22:29:19.446Z,55.10
2022-11-03T22:31:46.989Z,58.30
2022-11-03T22:34:35.616Z,51.90
2022-11-03T22:37:02.973Z,51.05
2022-11-03T22:39:48.790Z,49.85
2022-11-03T22:42:34.758Z,53.10
2022-11-03T22:45:20.485Z,49.53
2022-11-03T22:47:47.894Z,50.28
2022-11-03T22:50:15.240Z,48.50
2022-11-03T22:52:42.592Z,47.38
2022-11-03T22:55:09.999Z,47.33
2022-11-03T22:57:37.328Z,47.10
2022-11-03T23:00:05.795Z,47.20
2022-11-03T23:02:33.286Z,48.45
2022-11-03T23:05:00.815Z,45.03
2022-11-03T23:07:32.326Z,45.13
2022-11-03T23:10:04.936Z,37.38
2022-11-03T23:12:34.796Z,41.03
2022-11-03T23:15:20.676Z,40.10
2022-11-03T23:18:07.561Z,36.35
2022-11-03T23:20:56.375Z,41.70
2022-11-03T23:23:42.149Z,37.13
2022-11-03T23:26:09.584Z,37.78
2022-11-03T23:28:36.987Z,35.97
2022-11-03T23:31:04.531Z,38.10
2022-11-03T23:33:32.417Z,35.17
2022-11-03T23:36:07.969Z,33.63
2022-11-03T23:38:36.893Z,33.15
2022-11-03T23:41:07.004Z,32.08
2022-11-03T23:43:34.672Z,31.10
2022-11-03T23:46:20.555Z,30.90
2022-11-03T23:48:48.324Z,33.88
2022-11-03T23:51:20.934Z,30.25
2022-11-03T23:53:52.089Z,30.05
2022-11-03T23:56:41.815Z,28.00
2022-11-03T23:59:12.290Z,21.88
